createdAt,value
2022-09-23T00:01:19.930Z,96988.16
2022-09-23T00:04:16.828Z,96978.06
2022-09-23T00:07:13.633Z,96979.97
2022-09-23T00:10:11.075Z,96986.28
2022-09-23T00:13:07.933Z,96982.22
2022-09-23T00:16:15.171Z,96979.38
2022-09-23T00:19:11.979Z,96972.69
2022-09-23T00:22:08.924Z,96972.16
2022-09-23T00:25:10.382Z,96975.09
2022-09-23T00:28:07.173Z,96972.09
2022-09-23T00:31:13.530Z,96980.78
2022-09-23T00:34:11.383Z,96972.81
2022-09-23T00:37:08.192Z,96968.25
2022-09-23T00:40:05.744Z,96975.63
2022-09-23T00:43:02.862Z,96976.97
2022-09-23T00:46:00.297Z,96973.53
2022-09-23T00:49:26.672Z,96963.34
2022-09-23T00:52:24.605Z,96971.50
2022-09-23T00:55:32.627Z,96964.94
2022-09-23T00:58:34.278Z,96964.22
2022-09-23T01:01:31.422Z,96955.72
2022-09-23T01:04:29.772Z,96964.44
2022-09-23T01:07:27.099Z,96956.34
2022-09-23T01:10:24.908Z,96953.41
2022-09-23T01:13:42.481Z,96943.91
2022-09-23T01:16:50.870Z,96942.59
2022-09-23T01:20:08.444Z,96942.03
2022-09-23T01:23:56.104Z,96938.06
2022-09-23T01:27:23.798Z,96928.94
2022-09-23T01:30:57.559Z,96929.91
2022-09-23T01:34:24.239Z,96935.28
2022-09-23T01:38:11.784Z,96929.69
2022-09-23T01:41:17.123Z,96923.38
2022-09-23T01:44:30.414Z,96922.31
2022-09-23T01:47:39.763Z,96921.69
2022-09-23T01:50:56.226Z,96915.75
2022-09-23T01:54:19.727Z,96915.56
2022-09-23T01:57:35.608Z,96917.88
2022-09-23T02:00:40.733Z,96917.94
2022-09-23T02:03:47.009Z,96920.56
2022-09-23T02:06:52.175Z,96909.50
2022-09-23T02:10:11.168Z,96916.97
2022-09-23T02:13:24.184Z,96923.56
2022-09-23T02:16:42.799Z,96923.22
2022-09-23T02:20:02.357Z,96923.72
2022-09-23T02:23:36.676Z,96911.63
2022-09-23T02:27:37.123Z,96916.81
2022-09-23T02:30:50.673Z,96915.50
2022-09-23T02:34:00.304Z,96916.38
2022-09-23T02:37:19.074Z,96914.50
2022-09-23T02:40:43.415Z,96909.44
2022-09-23T02:43:56.988Z,96906.31
2022-09-23T02:46:54.572Z,96895.66
2022-09-23T02:49:51.999Z,96907.03
2022-09-23T02:52:49.692Z,96901.25
2022-09-23T02:55:46.567Z,96902.53
2022-09-23T02:58:43.896Z,96901.81
2022-09-23T03:02:08.632Z,96898.81
2022-09-23T03:05:31.532Z,96899.56
2022-09-23T03:08:53.392Z,96897.66
2022-09-23T03:12:01.503Z,96890.81
2022-09-23T03:15:31.367Z,96891.50
2022-09-23T03:18:58.003Z,96892.38
2022-09-23T03:22:07.063Z,96884.59
2022-09-23T03:25:11.940Z,96886.53
2022-09-23T03:28:10.212Z,96882.31
2022-09-23T03:31:07.151Z,96885.28
2022-09-23T03:34:16.244Z,96872.44
2022-09-23T03:37:47.108Z,96873.06
2022-09-23T03:40:47.776Z,96871.78
2022-09-23T03:43:45.097Z,96868.53
2022-09-23T03:46:46.507Z,96865.28
2022-09-23T03:49:48.413Z,96862.84
2022-09-23T03:52:46.395Z,96859.91
2022-09-23T03:55:43.207Z,96859.66
2022-09-23T03:58:39.994Z,96861.09
2022-09-23T04:01:36.912Z,96857.66
2022-09-23T04:04:37.773Z,96866.44
2022-09-23T04:07:34.535Z,96858.84
2022-09-23T04:10:31.315Z,96860.00
2022-09-23T04:13:29.387Z,96854.41
2022-09-23T04:16:26.533Z,96849.56
2022-09-23T04:19:23.471Z,96854.88
2022-09-23T04:22:20.538Z,96846.94
2022-09-23T04:25:17.369Z,96848.50
2022-09-23T04:28:14.394Z,96843.72
2022-09-23T04:31:11.432Z,96843.84
2022-09-23T04:34:09.362Z,96836.31
2022-09-23T04:37:06.158Z,96838.88
2022-09-23T04:40:03.311Z,96837.13
2022-09-23T04:43:00.222Z,96835.88
2022-09-23T04:46:06.320Z,96842.41
2022-09-23T04:49:03.282Z,96834.28
2022-09-23T04:52:00.196Z,96836.88
2022-09-23T04:54:56.986Z,96833.06
2022-09-23T04:57:53.784Z,96841.22
2022-09-23T05:00:50.614Z,96840.22
2022-09-23T05:03:47.915Z,96842.88
2022-09-23T05:06:45.361Z,96835.38
2022-09-23T05:09:42.261Z,96844.72
2022-09-23T05:12:39.098Z,96852.75
2022-09-23T05:15:35.905Z,96848.44
2022-09-23T05:18:38.932Z,96858.16
2022-09-23T05:21:37.752Z,96857.50
2022-09-23T05:24:34.562Z,96853.75
2022-09-23T05:27:31.437Z,96874.91
2022-09-23T05:30:28.341Z,96855.59
2022-09-23T05:33:25.138Z,96851.69
2022-09-23T05:36:23.066Z,96856.72
2022-09-23T05:39:19.887Z,96854.03
2022-09-23T05:42:21.134Z,96856.81
2022-09-23T05:45:17.945Z,96854.06
2022-09-23T05:48:14.763Z,96856.81
2022-09-23T05:51:16.780Z,96851.50
2022-09-23T05:54:13.582Z,96849.59
2022-09-23T05:57:10.379Z,96843.13
2022-09-23T06:00:08.415Z,96839.59
2022-09-23T06:03:06.383Z,96848.28
2022-09-23T06:06:03.244Z,96850.19
2022-09-23T06:09:00.859Z,96852.97
2022-09-23T06:11:57.663Z,96845.50
2022-09-23T06:14:54.482Z,96850.47
2022-09-23T06:17:51.378Z,96832.25
2022-09-23T06:20:48.195Z,96843.19
2022-09-23T06:23:46.274Z,96848.09
2022-09-23T06:26:43.075Z,96855.81
2022-09-23T06:29:40.031Z,96837.84
2022-09-23T06:32:36.883Z,96836.09
2022-09-23T06:35:33.688Z,96835.97
2022-09-23T06:38:30.970Z,96837.13
2022-09-23T06:41:27.853Z,96837.94
2022-09-23T06:44:24.786Z,96844.25
2022-09-23T06:47:21.632Z,96836.19
2022-09-23T06:50:18.982Z,96838.47
2022-09-23T06:53:17.146Z,96839.72
2022-09-23T06:56:14.419Z,96833.69
2022-09-23T06:59:13.139Z,96835.31
2022-09-23T07:02:10.360Z,96841.66
2022-09-23T07:05:08.107Z,96840.94
2022-09-23T07:08:11.688Z,96833.25
2022-09-23T07:11:13.296Z,96831.91
2022-09-23T07:14:10.298Z,96831.19
2022-09-23T07:17:07.212Z,96831.69
2022-09-23T07:20:04.696Z,96836.72
2022-09-23T07:23:01.505Z,96834.63
2022-09-23T07:25:59.338Z,96830.16
2022-09-23T07:28:57.651Z,96837.88
2022-09-23T07:32:00.665Z,96823.53
2022-09-23T07:35:00.375Z,96832.78
2022-09-23T07:37:57.168Z,96833.56
2022-09-23T07:40:53.972Z,96832.22
2022-09-23T07:43:52.651Z,96823.25
2022-09-23T07:46:49.795Z,96823.28
2022-09-23T07:49:46.753Z,96812.28
2022-09-23T07:52:43.545Z,96811.34
2022-09-23T07:55:40.433Z,96807.78
2022-09-23T07:58:37.241Z,96800.47
2022-09-23T08:01:41.201Z,96808.06
2022-09-23T08:04:38.144Z,96809.13
2022-09-23T08:07:35.340Z,96804.97
2022-09-23T08:10:32.130Z,96795.78
2022-09-23T08:13:29.247Z,96800.53
2022-09-23T08:16:26.236Z,96802.25
2022-09-23T08:19:23.275Z,96802.66
2022-09-23T08:22:20.903Z,96800.56
2022-09-23T08:25:20.581Z,96799.72
2022-09-23T08:28:19.136Z,96795.69
2022-09-23T08:31:16.066Z,96792.47
2022-09-23T08:34:13.461Z,96796.34
2022-09-23T08:37:11.190Z,96791.34
2022-09-23T08:40:08.797Z,96793.78
2022-09-23T08:43:26.271Z,96786.03
2022-09-23T08:46:31.807Z,96780.28
2022-09-23T08:49:40.021Z,96780.09
2022-09-23T08:52:53.796Z,96769.09
2022-09-23T08:55:53.823Z,96768.47
2022-09-23T08:59:12.072Z,96765.44
2022-09-23T09:02:22.513Z,96765.09
2022-09-23T09:05:27.534Z,96760.38
2022-09-23T09:08:32.748Z,96759.34
2022-09-23T09:11:37.028Z,96756.53
2022-09-23T09:14:48.935Z,96760.25
2022-09-23T09:18:12.807Z,96758.28
2022-09-23T09:21:13.907Z,96762.47
2022-09-23T09:24:34.983Z,96758.44
2022-09-23T09:27:32.229Z,96758.81
2022-09-23T09:30:29.110Z,96757.28
2022-09-23T09:33:51.196Z,96759.59
2022-09-23T09:37:15.754Z,96760.78
2022-09-23T09:40:15.111Z,96752.63
2022-09-23T09:43:23.500Z,96746.94
2022-09-23T09:47:04.217Z,96748.81
2022-09-23T09:50:13.991Z,96744.88
2022-09-23T09:53:30.401Z,96746.63
2022-09-23T09:56:37.205Z,96738.38
2022-09-23T09:59:35.329Z,96740.13
2022-09-23T10:02:36.140Z,96726.22
2022-09-23T10:05:47.778Z,96721.16
2022-09-23T10:09:01.578Z,96718.97
2022-09-23T10:12:19.209Z,96713.38
2022-09-23T10:15:33.043Z,96716.63
2022-09-23T10:18:47.096Z,96718.81
2022-09-23T10:21:44.243Z,96706.13
2022-09-23T10:24:47.362Z,96712.22
2022-09-23T10:27:45.539Z,96712.38
2022-09-23T10:31:03.210Z,96708.59
2022-09-23T10:34:03.494Z,96705.38
2022-09-23T10:37:14.132Z,96706.13
2022-09-23T10:40:36.783Z,96697.44
2022-09-23T10:44:45.439Z,96698.22
2022-09-23T10:48:24.985Z,96691.19
2022-09-23T10:51:46.755Z,96703.53
2022-09-23T10:55:20.786Z,96689.97
2022-09-23T10:58:51.427Z,96689.34
2022-09-23T11:02:23.420Z,96692.22
2022-09-23T11:06:00.752Z,96679.69
2022-09-23T11:09:43.965Z,96675.34
2022-09-23T11:13:07.710Z,96667.91
2022-09-23T11:16:19.514Z,96662.50
2022-09-23T11:19:25.375Z,96656.28
2022-09-23T11:23:09.602Z,96651.47
2022-09-23T11:26:45.859Z,96650.19
2022-09-23T11:30:09.022Z,96645.41
2022-09-23T11:33:17.772Z,96644.06
2022-09-23T11:36:44.321Z,96639.84
2022-09-23T11:40:00.141Z,96639.19
2022-09-23T11:43:23.479Z,96639.84
2022-09-23T11:47:07.550Z,96628.88
2022-09-23T11:50:34.463Z,96627.00
2022-09-23T11:53:57.380Z,96631.28
2022-09-23T11:57:00.138Z,96608.63
2022-09-23T12:00:04.782Z,96609.97
2022-09-23T12:03:44.423Z,96602.84
2022-09-23T12:06:52.516Z,96594.31
2022-09-23T12:10:06.287Z,96598.72
2022-09-23T12:13:13.112Z,96595.88
2022-09-23T12:16:53.725Z,96593.69
2022-09-23T12:20:16.093Z,96588.47
2022-09-23T12:23:36.636Z,96590.84
2022-09-23T12:26:34.944Z,96584.28
2022-09-23T12:29:35.519Z,96587.75
2022-09-23T12:32:32.908Z,96578.25
2022-09-23T12:35:43.004Z,96584.13
2022-09-23T12:38:46.739Z,96585.22
2022-09-23T12:41:51.761Z,96584.44
2022-09-23T12:44:49.588Z,96575.66
2022-09-23T12:47:46.454Z,96581.06
2022-09-23T12:51:15.830Z,96569.06
2022-09-23T12:54:23.699Z,96570.56
2022-09-23T12:57:35.339Z,96555.91
2022-09-23T13:00:34.237Z,96555.59
2022-09-23T13:03:50.172Z,96543.03
2022-09-23T13:07:07.725Z,96538.09
2022-09-23T13:10:32.794Z,96544.72
2022-09-23T13:13:41.551Z,96540.75
2022-09-23T13:16:44.333Z,96534.81
2022-09-23T13:19:41.117Z,96532.09
2022-09-23T13:22:48.876Z,96527.16
2022-09-23T13:25:46.068Z,96514.41
2022-09-23T13:28:56.702Z,96510.19
2022-09-23T13:31:57.852Z,96516.38
2022-09-23T13:35:15.686Z,96512.88
2022-09-23T13:38:26.027Z,96507.78
2022-09-23T13:41:28.503Z,96511.94
2022-09-23T13:44:25.395Z,96504.44
2022-09-23T13:47:22.239Z,96502.00
2022-09-23T13:50:23.579Z,96502.72
2022-09-23T13:53:29.041Z,96492.97
2022-09-23T13:56:29.293Z,96496.81
2022-09-23T13:59:30.078Z,96494.97
2022-09-23T14:02:28.579Z,96493.03
2022-09-23T14:05:29.757Z,96490.63
2022-09-23T14:08:29.178Z,96483.28
2022-09-23T14:11:33.302Z,96486.16
2022-09-23T14:14:31.009Z,96480.25
2022-09-23T14:17:27.902Z,96489.91
2022-09-23T14:20:24.773Z,96475.44
2022-09-23T14:23:21.601Z,96473.06
2022-09-23T14:26:19.139Z,96480.75
2022-09-23T14:29:24.497Z,96474.16
2022-09-23T14:32:26.744Z,96472.25
2022-09-23T14:35:40.107Z,96475.13
2022-09-23T14:38:51.895Z,96464.00
2022-09-23T14:41:48.740Z,96462.66
2022-09-23T14:44:50.506Z,96461.09
2022-09-23T14:47:52.030Z,96461.44
2022-09-23T14:50:55.739Z,96459.94
2022-09-23T14:53:52.583Z,96454.53
2022-09-23T14:56:49.386Z,96445.56
2022-09-23T14:59:54.641Z,96445.25
2022-09-23T15:03:03.759Z,96447.13
2022-09-23T15:06:09.048Z,96439.97
2022-09-23T15:09:07.357Z,96442.88
2022-09-23T15:12:16.867Z,96435.44
2022-09-23T15:15:15.644Z,96427.44
2022-09-23T15:18:24.479Z,96430.09
2022-09-23T15:21:23.150Z,96437.34
2022-09-23T15:24:44.850Z,96438.56
2022-09-23T15:27:41.652Z,96436.69
2022-09-23T15:30:39.495Z,96437.25
2022-09-23T15:33:36.298Z,96433.75
2022-09-23T15:36:33.230Z,96432.84
2022-09-23T15:39:35.970Z,96436.53
2022-09-23T15:42:33.048Z,96430.63
2022-09-23T15:45:36.828Z,96431.84
2022-09-23T15:48:43.097Z,96438.41
2022-09-23T15:51:40.865Z,96435.88
2022-09-23T15:54:37.778Z,96434.38
2022-09-23T15:57:34.604Z,96425.03
2022-09-23T16:00:32.375Z,96421.34
2022-09-23T16:03:29.246Z,96412.91
2022-09-23T16:06:26.917Z,96410.75
2022-09-23T16:09:23.991Z,96414.69
2022-09-23T16:12:20.786Z,96417.34
2022-09-23T16:15:20.442Z,96415.03
2022-09-23T16:18:17.311Z,96416.78
2022-09-23T16:21:17.858Z,96418.22
2022-09-23T16:24:17.796Z,96420.78
2022-09-23T16:27:18.291Z,96417.00
2022-09-23T16:30:15.250Z,96420.16
2022-09-23T16:33:12.064Z,96422.88
2022-09-23T16:36:44.166Z,96416.84
2022-09-23T16:39:41.026Z,96417.03
2022-09-23T16:42:38.298Z,96417.38
2022-09-23T16:45:35.151Z,96414.31
2022-09-23T16:48:31.988Z,96417.19
2022-09-23T16:51:33.372Z,96418.25
2022-09-23T16:54:30.194Z,96417.94
2022-09-23T16:57:29.947Z,96418.72
2022-09-23T17:00:45.408Z,96421.22
2022-09-23T17:03:42.374Z,96424.13
2022-09-23T17:06:50.239Z,96429.94
2022-09-23T17:09:47.151Z,96426.25
2022-09-23T17:12:44.487Z,96431.53
2022-09-23T17:15:43.993Z,96430.41
2022-09-23T17:18:41.007Z,96430.56
2022-09-23T17:21:38.819Z,96433.88
2022-09-23T17:24:35.651Z,96431.56
2022-09-23T17:27:32.482Z,96437.56
2022-09-23T17:30:29.315Z,96443.91
2022-09-23T17:33:28.537Z,96440.56
2022-09-23T17:36:25.414Z,96438.69
2022-09-23T17:39:22.348Z,96445.91
2022-09-23T17:42:19.342Z,96449.19
2022-09-23T17:45:16.246Z,96446.34
2022-09-23T17:48:14.284Z,96447.06
2022-09-23T17:51:17.424Z,96448.84
2022-09-23T17:54:15.026Z,96462.09
2022-09-23T17:57:14.576Z,96457.56
2022-09-23T18:00:12.362Z,96460.34
2022-09-23T18:03:09.256Z,96454.47
2022-09-23T18:06:12.180Z,96457.88
2022-09-23T18:09:10.053Z,96452.13
2022-09-23T18:12:06.891Z,96458.75
2022-09-23T18:15:04.023Z,96450.63
2022-09-23T18:18:00.839Z,96442.81
2022-09-23T18:21:05.229Z,96449.34
2022-09-23T18:24:28.203Z,96449.16
2022-09-23T18:27:19.968Z,96450.03
2022-09-23T18:30:17.091Z,96454.78
2022-09-23T18:33:15.225Z,96456.38
2022-09-23T18:36:12.019Z,96448.56
2022-09-23T18:39:09.332Z,96451.34
2022-09-23T18:42:06.202Z,96455.97
2022-09-23T18:45:03.024Z,96460.94
2022-09-23T18:48:18.495Z,96459.94
2022-09-23T18:51:16.898Z,96460.44
2022-09-23T18:54:13.702Z,96464.94
2022-09-23T18:57:14.618Z,96463.09
2022-09-23T19:00:11.590Z,96466.97
2022-09-23T19:03:08.415Z,96456.13
2022-09-23T19:06:19.351Z,96462.69
2022-09-23T19:09:19.024Z,96465.94
2022-09-23T19:12:15.815Z,96464.53
2022-09-23T19:15:13.786Z,96463.31
2022-09-23T19:18:10.578Z,96466.56
2022-09-23T19:21:12.008Z,96464.97
2022-09-23T19:24:12.066Z,96468.59
2022-09-23T19:27:09.102Z,96460.75
2022-09-23T19:30:07.049Z,96460.16
2022-09-23T19:33:04.100Z,96458.53
2022-09-23T19:36:01.115Z,96457.59
2022-09-23T19:39:00.824Z,96457.50
2022-09-23T19:41:59.008Z,96460.91
2022-09-23T19:44:55.829Z,96456.72
2022-09-23T19:47:56.561Z,96454.03
2022-09-23T19:50:53.364Z,96456.00
2022-09-23T19:53:50.452Z,96446.97
2022-09-23T19:56:48.680Z,96442.69
2022-09-23T19:59:46.002Z,96453.50
2022-09-23T20:02:43.330Z,96438.84
2022-09-23T20:05:40.816Z,96438.94
2022-09-23T20:08:38.778Z,96441.50
2022-09-23T20:11:36.360Z,96445.53
2022-09-23T20:14:33.376Z,96434.88
2022-09-23T20:17:31.304Z,96435.75
2022-09-23T20:20:28.131Z,96431.06
2022-09-23T20:23:24.923Z,96441.75
2022-09-23T20:26:40.382Z,96438.28
2022-09-23T20:29:37.815Z,96422.94
2022-09-23T20:32:36.862Z,96420.03
2022-09-23T20:35:33.640Z,96412.75
2022-09-23T20:38:32.068Z,96422.00
2022-09-23T20:41:31.375Z,96417.25
2022-09-23T20:44:28.401Z,96419.38
2022-09-23T20:47:25.273Z,96425.78
2022-09-23T20:50:22.046Z,96430.28
2022-09-23T20:53:19.807Z,96428.25
2022-09-23T20:56:18.829Z,96423.50
2022-09-23T20:59:17.568Z,96421.25
2022-09-23T21:02:15.166Z,96423.50
2022-09-23T21:05:12.223Z,96416.38
2022-09-23T21:08:09.129Z,96417.88
2022-09-23T21:11:09.929Z,96415.56
2022-09-23T21:14:06.789Z,96411.38
2022-09-23T21:17:03.645Z,96421.66
2022-09-23T21:20:01.410Z,96411.47
2022-09-23T21:22:58.225Z,96413.34
2022-09-23T21:26:20.093Z,96408.06
2022-09-23T21:29:17.077Z,96414.97
2022-09-23T21:32:13.890Z,96414.94
2022-09-23T21:35:10.684Z,96405.75
2022-09-23T21:38:07.472Z,96410.09
2022-09-23T21:41:09.794Z,96414.34
2022-09-23T21:44:07.909Z,96421.09
2022-09-23T21:47:04.811Z,96417.16
2022-09-23T21:50:02.881Z,96418.38
2022-09-23T21:53:00.850Z,96413.75
2022-09-23T21:56:10.647Z,96421.25
2022-09-23T21:59:08.051Z,96402.09
2022-09-23T22:02:04.846Z,96402.00
2022-09-23T22:05:01.649Z,96403.84
2022-09-23T22:07:58.424Z,96413.13
2022-09-23T22:10:56.020Z,96413.59
2022-09-23T22:13:53.566Z,96406.34
2022-09-23T22:16:50.374Z,96397.34
2022-09-23T22:19:47.431Z,96406.38
2022-09-23T22:22:44.495Z,96396.81
2022-09-23T22:25:41.290Z,96391.72
2022-09-23T22:28:56.305Z,96398.19
2022-09-23T22:32:11.499Z,96392.28
2022-09-23T22:35:16.794Z,96388.91
2022-09-23T22:38:13.642Z,96387.25
2022-09-23T22:41:15.119Z,96392.66
2022-09-23T22:44:11.904Z,96385.66
2022-09-23T22:47:10.090Z,96382.81
2022-09-23T22:50:09.333Z,96382.38
2022-09-23T22:53:07.457Z,96385.63
2022-09-23T22:56:04.370Z,96373.44
2022-09-23T22:59:05.847Z,96373.53
2022-09-23T23:02:02.992Z,96371.22
2022-09-23T23:05:00.532Z,96359.53
2022-09-23T23:07:57.478Z,96365.00
2022-09-23T23:10:56.028Z,96362.19
2022-09-23T23:13:54.391Z,96358.31
2022-09-23T23:16:51.181Z,96350.97
2022-09-23T23:19:48.121Z,96350.97
2022-09-23T23:22:44.892Z,96355.88
2022-09-23T23:25:41.666Z,96350.69
2022-09-23T23:28:40.302Z,96348.50
2022-09-23T23:31:37.568Z,96354.97
2022-09-23T23:34:34.420Z,96360.28
2022-09-23T23:37:31.274Z,96353.03
2022-09-23T23:40:28.161Z,96364.41
2022-09-23T23:43:24.986Z,96354.47
2022-09-23T23:46:25.344Z,96360.84
2022-09-23T23:49:22.595Z,96357.31
2022-09-23T23:52:19.498Z,96349.84
2022-09-23T23:55:16.982Z,96352.69
2022-09-23T23:58:16.143Z,96342.44
